Time;durP1;ratioP1;P1;durP2;ratioP2;P2;SDS_P1;SDS_P2;PMS_P1;PMS_P2;Temp;Humidity;BMP_temperature;BMP_pressure;BME280_temperature;BME280_humidity;BME280_pressure;Samples;Min_cycle;Max_cycle;Signal;HPM_P1;HPM_P2
2022/08/18 00:00:15;;;;;;;16.58;14.18;;;;;;;22.72;61.99;98104.03;5032077;28;20682;-79
2022/08/18 00:02:42;;;;;;;16.50;14.38;;;;;;;22.69;62.11;98110.38;5032074;28;20021;-78
2022/08/18 00:05:11;;;;;;;18.80;14.10;;;;;;;22.67;62.16;98116.38;5031872;28;20025;-78
2022/08/18 00:07:36;;;;;;;16.60;14.90;;;;;;;22.65;62.06;98118.75;5031971;28;20040;-78
2022/08/18 00:10:04;;;;;;;18.90;14.73;;;;;;;22.63;62.14;98118.34;5031965;28;20508;-79
2022/08/18 00:12:40;;;;;;;16.45;14.23;;;;;;;22.59;62.30;98120.28;5031732;28;20037;-78
2022/08/18 00:15:13;;;;;;;19.67;15.07;;;;;;;22.57;62.13;98115.09;5029939;28;20040;-78
2022/08/18 00:17:39;;;;;;;17.60;15.63;;;;;;;22.54;62.43;98115.88;5028437;28;20029;-78
2022/08/18 00:20:10;;;;;;;19.23;15.88;;;;;;;22.52;62.43;98106.25;5031226;28;20033;-78
2022/08/18 00:22:38;;;;;;;18.27;15.95;;;;;;;22.49;62.48;98102.25;5032312;28;20033;-78
2022/08/18 00:25:06;;;;;;;18.70;14.95;;;;;;;22.47;62.68;98093.44;5031721;28;20048;-78
2022/08/18 00:27:31;;;;;;;18.75;15.43;;;;;;;22.43;62.75;98092.56;5028815;28;20032;-78
2022/08/18 00:30:00;;;;;;;19.05;15.32;;;;;;;22.39;62.85;98098.13;5031333;28;20041;-77
2022/08/18 00:32:32;;;;;;;20.38;15.85;;;;;;;22.38;62.72;98106.88;5028864;28;20026;-79
2022/08/18 00:35:06;;;;;;;18.08;15.68;;;;;;;22.35;62.83;98105.69;5031599;28;20530;-81
2022/08/18 00:37:32;;;;;;;17.73;15.65;;;;;;;22.34;62.94;98108.84;5031946;28;20032;-80
2022/08/18 00:39:57;;;;;;;20.92;15.85;;;;;;;22.31;63.19;98102.03;5031926;28;20029;-79
2022/08/18 00:42:28;;;;;;;18.00;16.10;;;;;;;22.27;62.93;98104.78;5032194;28;20036;-80
2022/08/18 00:44:56;;;;;;;17.40;15.48;;;;;;;22.24;63.34;98113.13;5030644;28;20399;-79
2022/08/18 00:47:21;;;;;;;19.85;16.20;;;;;;;22.20;63.34;98104.72;5031825;28;20037;-80
2022/08/18 00:49:51;;;;;;;18.42;16.48;;;;;;;22.16;62.99;98101.88;5030403;28;20047;-79
2022/08/18 00:52:18;;;;;;;18.58;16.23;;;;;;;22.14;63.32;98104.25;5031093;28;20049;-80
2022/08/18 00:54:45;;;;;;;17.42;15.57;;;;;;;22.10;63.47;98103.41;5030948;28;20102;-80
2022/08/18 00:57:13;;;;;;;18.98;16.27;;;;;;;22.06;63.42;98104.56;5031240;28;20073;-80
2022/08/18 00:59:54;;;;;;;19.73;16.58;;;;;;;22.00;63.47;98099.31;5029720;28;20041;-80
2022/08/18 01:02:32;;;;;;;18.95;16.67;;;;;;;21.96;63.36;98109.66;5031115;28;20041;-80
2022/08/18 01:05:05;;;;;;;20.80;17.33;;;;;;;21.92;63.51;98097.63;5031193;28;20030;-80
2022/08/18 01:07:44;;;;;;;20.92;17.27;;;;;;;21.89;63.48;98092.81;5030713;28;20029;-80
2022/08/18 01:10:14;;;;;;;;;;;;;;;21.85;63.68;98100.34;5029877;28;20025;-80
2022/08/18 01:12:40;;;;;;;19.85;16.50;;;;;;;21.80;63.70;98087.53;5030265;28;19913;-79
2022/08/18 01:15:06;;;;;;;23.25;17.25;;;;;;;21.76;63.88;98086.69;5030112;28;20125;-80
2022/08/18 01:23:14;;;;;;;20.33;16.80;;;;;;;21.68;64.32;98085.00;5029402;28;20045;-80
2022/08/18 01:25:58;;;;;;;20.02;17.05;;;;;;;21.65;64.27;98092.16;5030710;28;20116;-80
2022/08/18 01:28:26;;;;;;;20.33;17.52;;;;;;;21.63;64.56;98088.94;5031201;28;20458;-80
2022/08/18 01:30:57;;;;;;;20.95;17.60;;;;;;;21.61;64.74;98088.47;5031248;28;20032;-79
2022/08/18 01:33:25;;;;;;;20.67;16.77;;;;;;;21.56;64.53;98075.69;5031491;28;20033;-80
2022/08/18 01:35:52;;;;;;;18.75;16.83;;;;;;;21.52;64.82;98072.03;5031195;28;20028;-80
2022/08/18 01:38:21;;;;;;;21.30;16.75;;;;;;;21.51;64.85;98064.84;5031031;28;20025;-80
2022/08/18 01:40:46;;;;;;;20.73;17.17;;;;;;;21.49;64.87;98066.38;5030514;28;20029;-80
2022/08/18 01:43:13;;;;;;;19.50;16.75;;;;;;;21.44;64.69;98059.16;5031144;28;20072;-80
2022/08/18 01:45:40;;;;;;;19.30;17.30;;;;;;;21.40;64.87;98059.09;5031288;28;20022;-80
2022/08/18 01:48:07;;;;;;;22.70;17.90;;;;;;;21.37;64.66;98057.09;5031172;28;20072;-79
2022/08/18 01:50:33;;;;;;;20.85;17.20;;;;;;;21.33;64.71;98053.47;5031081;28;20029;-79
2022/08/18 01:53:00;;;;;;;20.35;18.08;;;;;;;21.28;65.12;98064.94;5028935;28;20091;-79
2022/08/18 01:55:27;;;;;;;19.05;17.00;;;;;;;21.24;64.96;98061.31;5030960;28;20040;-80
2022/08/18 01:57:53;;;;;;;21.17;17.15;;;;;;;21.20;65.02;98052.88;5034071;28;20044;-80
2022/08/18 02:00:19;;;;;;;18.52;16.63;;;;;;;21.18;65.06;98062.81;5032315;28;20038;-80
2022/08/18 02:02:46;;;;;;;19.77;17.02;;;;;;;21.14;65.45;98057.19;5033577;28;20021;-80
2022/08/18 02:05:18;;;;;;;21.45;17.55;;;;;;;21.10;65.36;98053.53;5033408;28;20115;-81
2022/08/18 02:07:44;;;;;;;20.92;17.35;;;;;;;21.09;65.43;98063.09;5034203;28;20463;-80
2022/08/18 02:10:10;;;;;;;23.30;17.25;;;;;;;21.05;65.64;98065.03;5032268;28;20104;-79
2022/08/18 02:12:37;;;;;;;19.70;16.65;;;;;;;21.03;65.66;98065.38;5034413;28;20061;-79
2022/08/18 02:15:04;;;;;;;19.35;16.63;;;;;;;21.03;65.64;98079.31;5034036;28;20514;-80
2022/08/18 02:17:36;;;;;;;20.08;16.27;;;;;;;21.01;65.85;98073.31;5034617;28;20045;-80
2022/08/18 02:20:03;;;;;;;20.52;16.25;;;;;;;21.00;65.67;98065.34;5034419;28;20385;-80
2022/08/18 02:22:28;;;;;;;19.63;15.70;;;;;;;20.98;65.81;98074.09;5034274;28;20025;-80
2022/08/18 02:24:56;;;;;;;21.40;17.00;;;;;;;20.97;65.76;98078.84;5034191;28;20030;-80
2022/08/18 02:27:22;;;;;;;19.63;17.15;;;;;;;20.96;65.92;98074.44;5034216;28;20480;-80
2022/08/18 02:29:47;;;;;;;22.20;18.63;;;;;;;20.95;66.03;98072.84;5032875;28;20032;-80
2022/08/18 02:32:13;;;;;;;25.45;20.33;;;;;;;20.98;66.21;98085.25;5034189;28;20026;-79
2022/08/18 02:34:41;;;;;;;24.30;19.00;;;;;;;20.98;66.24;98090.81;5033210;28;20033;-80
2022/08/18 02:37:06;;;;;;;22.20;18.92;;;;;;;20.98;66.22;98090.81;5033621;28;20060;-79
2022/08/18 02:39:34;;;;;;;22.42;18.67;;;;;;;20.99;66.26;98094.41;5033903;28;20032;-79
2022/08/18 02:41:59;;;;;;;20.55;17.92;;;;;;;20.99;66.20;98094.41;5034047;28;20037;-79
2022/08/18 02:44:25;;;;;;;21.75;17.45;;;;;;;21.00;66.29;98082.84;5033874;28;20056;-80
2022/08/18 02:46:52;;;;;;;20.77;16.73;;;;;;;21.01;66.32;98090.03;5034291;28;20404;-80
2022/08/18 02:49:18;;;;;;;20.48;17.38;;;;;;;21.01;66.29;98090.03;5033075;28;20071;-80
2022/08/18 02:51:43;;;;;;;19.15;16.33;;;;;;;21.02;66.41;98099.22;5033829;28;20029;-80
2022/08/18 02:54:10;;;;;;;19.58;17.25;;;;;;;21.02;66.49;98096.44;5033579;28;20068;-79
2022/08/18 02:56:36;;;;;;;23.00;17.50;;;;;;;21.01;66.42;98098.41;5033603;28;20091;-80
2022/08/18 02:59:06;;;;;;;21.40;18.05;;;;;;;21.01;66.46;98095.63;5033681;28;20056;-80
2022/08/18 03:01:34;;;;;;;20.42;18.08;;;;;;;21.02;66.48;98099.22;5033758;28;20159;-80
2022/08/18 03:04:00;;;;;;;22.38;17.75;;;;;;;21.02;66.68;98099.22;5034212;28;20026;-80
2022/08/18 03:06:29;;;;;;;20.95;17.95;;;;;;;21.01;66.37;98095.63;5035020;28;20392;-80
2022/08/18 03:08:54;;;;;;;21.37;17.23;;;;;;;21.01;66.64;98097.63;5033534;28;20618;-80
2022/08/18 03:11:24;;;;;;;20.10;17.92;;;;;;;21.00;66.55;98096.78;5033990;28;20355;-80
2022/08/18 03:13:50;;;;;;;;;;;;;;;21.01;66.30;98095.63;5033908;28;20048;-81
2022/08/18 03:16:16;;;;;;;24.27;18.48;;;;;;;21.00;66.47;98096.78;5033253;28;19916;-81
2022/08/18 03:18:44;;;;;;;22.00;18.63;;;;;;;20.98;66.44;98096.41;5033112;28;20033;-80
2022/08/18 03:21:13;;;;;;;22.77;18.83;;;;;;;20.96;66.62;98093.97;5033347;28;20037;-80
2022/08/18 03:23:39;;;;;;;23.40;18.85;;;;;;;20.97;66.81;98094.78;5032980;28;20455;-80
2022/08/18 03:26:10;;;;;;;21.55;19.23;;;;;;;20.95;66.88;98088.78;5033438;28;20083;-80
2022/08/18 03:28:36;;;;;;;21.27;18.88;;;;;;;20.93;66.82;98093.91;5033451;28;20030;-80
2022/08/18 03:31:02;;;;;;;23.17;19.05;;;;;;;20.94;66.98;98089.97;5033335;28;20045;-80
2022/08/18 03:33:27;;;;;;;22.20;18.85;;;;;;;20.93;66.94;98089.13;5033219;28;20069;-81
2022/08/18 03:35:53;;;;;;;21.70;18.67;;;;;;;20.90;66.86;98091.88;5033091;28;20033;-80
2022/08/18 03:38:18;;;;;;;22.90;18.70;;;;;;;20.87;67.07;98099.00;5032819;28;20079;-81
2022/08/18 03:40:50;;;;;;;22.15;18.52;;;;;;;20.82;66.90;98096.53;5033089;28;20386;-80
2022/08/18 03:43:16;;;;;;;25.50;19.00;;;;;;;20.80;67.14;98096.91;5033180;28;20044;-80
2022/08/18 03:45:41;;;;;;;24.55;19.77;;;;;;;20.81;67.23;98097.69;5033033;28;20468;-80
2022/08/18 03:48:07;;;;;;;24.52;20.17;;;;;;;20.79;67.25;98095.28;5032863;28;20033;-80
2022/08/18 03:50:32;;;;;;;23.17;19.77;;;;;;;20.79;67.44;98100.88;5031496;28;20053;-79
2022/08/18 03:52:58;;;;;;;25.10;20.38;;;;;;;20.79;67.41;98098.09;5032428;28;20029;-80
2022/08/18 03:55:28;;;;;;;24.50;20.67;;;;;;;20.80;67.53;98102.47;5032392;28;20112;-80
2022/08/18 03:57:56;;;;;;;;;;;;;;;20.80;67.09;98099.69;5032901;28;20017;-80
2022/08/18 04:00:25;;;;;;;28.77;21.30;;;;;;;20.80;67.43;98099.69;5032443;28;20366;-80
2022/08/18 04:02:50;;;;;;;28.88;20.20;;;;;;;20.79;67.44;98095.28;5030967;28;20029;-80
2022/08/18 04:05:16;;;;;;;26.38;21.73;;;;;;;20.79;67.84;98108.41;5032413;28;20071;-80
2022/08/18 04:07:41;;;;;;;26.35;22.17;;;;;;;20.79;67.66;98105.63;5032287;28;20034;-80
2022/08/18 04:10:07;;;;;;;25.92;22.15;;;;;;;20.81;67.75;98103.28;5031164;28;20112;-80
2022/08/18 04:12:35;;;;;;;24.95;21.48;;;;;;;20.82;67.91;98114.06;5032112;28;20452;-80
2022/08/18 04:15:02;;;;;;;25.50;21.30;;;;;;;20.85;67.93;98114.50;5032299;28;20021;-81
2022/08/18 04:17:27;;;;;;;26.75;22.45;;;;;;;20.85;67.88;98114.50;5032200;28;20059;-80
2022/08/18 04:19:55;;;;;;;27.08;21.45;;;;;;;20.84;68.11;98112.88;5030370;28;20365;-81
2022/08/18 04:22:21;;;;;;;25.98;21.42;;;;;;;20.85;68.10;98120.84;5030873;28;20467;-80
2022/08/18 04:24:49;;;;;;;27.70;20.88;;;;;;;20.87;68.12;98112.13;5032306;28;20032;-80
2022/08/18 04:27:15;;;;;;;24.13;20.75;;;;;;;20.89;68.12;98107.00;5032002;28;20114;-81
2022/08/18 04:29:40;;;;;;;24.63;21.02;;;;;;;20.92;68.19;98109.03;5032117;28;20037;-81
2022/08/18 04:32:06;;;;;;;27.52;21.42;;;;;;;20.92;68.42;98115.41;5031976;28;20056;-81
2022/08/18 04:34:32;;;;;;;26.02;21.33;;;;;;;20.96;68.40;98113.47;5031697;28;20040;-81
2022/08/18 04:36:58;;;;;;;26.02;21.38;;;;;;;20.99;68.62;98109.13;5031795;28;20104;-81
2022/08/18 04:39:24;;;;;;;26.08;21.23;;;;;;;21.02;68.59;98104.81;5030455;28;20826;-81
2022/08/18 04:41:51;;;;;;;25.42;20.85;;;;;;;21.05;68.81;98102.06;5031957;28;20021;-80
2022/08/18 04:44:17;;;;;;;26.90;21.48;;;;;;;21.08;68.75;98106.09;5031688;28;20072;-81
2022/08/18 04:46:51;;;;;;;24.25;21.40;;;;;;;21.11;68.71;98110.91;5031865;28;20029;-81
2022/08/18 04:49:19;;;;;;;25.10;21.73;;;;;;;21.15;69.01;98113.75;5030578;28;20531;-80
2022/08/18 04:53:43;;;;;;;27.35;23.48;;;;;;;21.16;68.95;98110.59;5032489;28;20032;-80
2022/08/18 04:54:37;;;;;;;30.50;24.97;;;;;;;21.20;69.09;98110.63;5032416;28;20029;-81
2022/08/18 04:57:15;;;;;;;29.45;23.40;;;;;;;21.23;69.12;98115.47;5032647;28;20109;-81
2022/08/18 04:59:44;;;;;;;26.73;23.80;;;;;;;21.28;69.13;98112.34;5032490;28;20422;-80
2022/08/18 05:02:10;;;;;;;26.93;24.13;;;;;;;21.31;69.30;98119.97;5032453;28;20029;-80
2022/08/18 05:04:40;;;;;;;25.67;21.50;;;;;;;21.34;68.90;98112.81;5032376;28;20025;-81
2022/08/18 05:07:08;;;;;;;26.52;21.13;;;;;;;21.37;69.45;98112.88;5032401;28;20079;-80
2022/08/18 05:09:34;;;;;;;26.08;21.42;;;;;;;21.40;69.34;98114.91;5031323;28;20423;-80
2022/08/18 05:12:02;;;;;;;23.42;20.42;;;;;;;21.46;69.43;98114.56;5032327;28;20116;-81
2022/08/18 05:14:28;;;;;;;24.08;20.67;;;;;;;21.50;69.37;98116.25;5032092;28;20037;-80
2022/08/18 05:16:58;;;;;;;24.92;20.38;;;;;;;21.56;69.63;98111.94;5032048;28;20036;-81
2022/08/18 05:19:25;;;;;;;24.95;20.58;;;;;;;21.60;69.47;98109.19;5032333;28;20470;-80
2022/08/18 05:21:52;;;;;;;26.05;20.83;;;;;;;21.63;69.79;98114.03;5032170;28;20029;-81
2022/08/18 05:24:19;;;;;;;24.63;20.45;;;;;;;21.70;69.73;98110.53;5032007;28;20422;-81
2022/08/18 05:26:44;;;;;;;24.80;21.42;;;;;;;21.74;69.80;98105.81;5031963;28;20021;-80
2022/08/18 05:29:11;;;;;;;24.10;20.63;;;;;;;21.78;69.92;98106.66;5032036;28;20095;-80
2022/08/18 05:31:36;;;;;;;22.38;19.73;;;;;;;21.82;70.01;98103.88;5030274;28;20476;-80
2022/08/18 05:34:03;;;;;;;23.73;19.95;;;;;;;21.85;69.72;98114.28;5031803;28;20080;-80
2022/08/18 05:36:57;;;;;;;25.05;19.95;;;;;;;21.90;69.75;98111.16;5031986;28;20403;-81
2022/08/18 05:39:34;;;;;;;26.02;20.30;;;;;;;21.97;69.70;98110.47;5031945;28;20025;-80
2022/08/18 05:42:14;;;;;;;23.90;19.00;;;;;;;21.99;69.82;98114.47;5031876;28;20121;-81
2022/08/18 05:44:44;;;;;;;24.63;19.73;;;;;;;22.05;69.92;98109.34;5031610;28;20507;-81
2022/08/18 05:47:28;;;;;;;23.83;20.33;;;;;;;22.08;69.89;98105.78;5032259;28;20087;-80
2022/08/18 05:49:56;;;;;;;25.00;19.42;;;;;;;22.14;70.08;98114.63;5031531;28;20108;-81
2022/08/18 05:52:33;;;;;;;24.42;19.67;;;;;;;22.19;70.02;98110.69;5031637;28;20506;-81
2022/08/18 05:57:51;;;;;;;25.15;20.20;;;;;;;22.24;69.84;98108.34;5032099;28;20039;-80
2022/08/18 06:00:20;;;;;;;22.25;19.58;;;;;;;22.29;69.97;98118.38;5031523;28;20487;-80
2022/08/18 06:02:53;;;;;;;25.10;19.63;;;;;;;22.33;70.06;98115.63;5031064;28;20052;-82
2022/08/18 06:05:40;;;;;;;23.05;19.25;;;;;;;22.37;69.91;98119.25;5031618;28;20546;-81
2022/08/18 06:08:11;;;;;;;23.27;18.52;;;;;;;22.41;70.05;98122.88;5031623;28;20025;-80
2022/08/18 06:10:41;;;;;;;23.15;19.05;;;;;;;22.44;70.14;98127.75;5031208;28;20029;-80
2022/08/18 06:13:09;;;;;;;23.45;18.55;;;;;;;22.49;70.04;98123.78;5031804;28;20103;-80
2022/08/18 06:16:03;;;;;;;25.38;18.42;;;;;;;22.53;69.91;98125.44;5031805;28;20403;-81
2022/08/18 06:18:50;;;;;;;23.30;17.52;;;;;;;22.60;69.90;98131.09;5028468;28;20029;-80
2022/08/18 06:21:30;;;;;;;23.48;17.88;;;;;;;22.66;69.88;98136.31;5029155;28;20025;-81
2022/08/18 06:24:26;;;;;;;22.55;17.38;;;;;;;22.71;69.66;98136.78;5029490;28;20033;-79
2022/08/18 06:27:22;;;;;;;20.05;16.90;;;;;;;22.81;69.71;98137.25;5031041;28;20030;-81
2022/08/18 06:29:50;;;;;;;21.92;16.90;;;;;;;22.88;69.82;98135.31;5031431;28;20040;-81
2022/08/18 06:32:40;;;;;;;21.00;16.60;;;;;;;22.94;69.61;98140.56;5031233;28;20021;-80
2022/08/18 06:35:30;;;;;;;24.10;17.75;;;;;;;23.02;69.58;98140.22;5021162;28;20076;-80
2022/08/18 06:41:07;;;;;;;20.63;16.92;;;;;;;23.23;69.51;98144.38;5029030;28;20091;-81
2022/08/18 06:43:37;;;;;;;18.52;15.85;;;;;;;23.31;69.45;98142.44;5033223;28;20041;-80
2022/08/18 06:46:16;;;;;;;19.75;16.15;;;;;;;23.38;69.33;98139.69;5034026;28;20485;-79
2022/08/18 06:48:53;;;;;;;21.85;16.70;;;;;;;23.48;69.23;98140.94;5024945;28;20025;-80
2022/08/18 06:51:21;;;;;;;18.60;15.30;;;;;;;23.56;68.86;98138.97;5024011;28;20036;-79
2022/08/18 06:53:52;;;;;;;18.55;15.82;;;;;;;23.64;68.93;98140.63;5036112;28;20028;-80
2022/08/18 06:56:27;;;;;;;16.85;15.00;;;;;;;23.72;68.56;98147.06;5029682;28;20052;-79
2022/08/18 06:58:54;;;;;;;16.15;14.45;;;;;;;23.76;68.35;98140.28;5034366;28;20041;-77
2022/08/18 07:01:22;;;;;;;19.55;15.07;;;;;;;23.85;68.24;98148.31;5029997;28;20487;-74
2022/08/18 07:03:53;;;;;;;16.70;14.60;;;;;;;23.93;68.23;98140.75;5036412;28;20040;-82
2022/08/18 07:06:20;;;;;;;17.05;15.18;;;;;;;24.01;68.04;98144.41;5033231;28;20035;-83
2022/08/18 07:08:47;;;;;;;18.00;14.95;;;;;;;24.11;67.98;98149.25;5031895;28;20044;-78
2022/08/18 07:11:33;;;;;;;18.10;14.77;;;;;;;24.21;67.76;98151.28;5035561;28;20025;-82
2022/08/18 07:14:12;;;;;;;18.50;15.77;;;;;;;24.31;67.76;98146.91;5032933;28;20042;-78
2022/08/18 07:16:38;;;;;;;20.05;15.73;;;;;;;24.42;67.55;98152.53;5029042;28;20033;-77
2022/08/18 07:19:11;;;;;;;18.10;16.15;;;;;;;24.51;67.28;98149.34;5030712;28;20582;-77
2022/08/18 07:21:39;;;;;;;21.33;15.60;;;;;;;24.57;67.03;98150.56;5027849;28;20034;-77
2022/08/18 07:24:12;;;;;;;18.67;16.10;;;;;;;24.65;67.19;98149.38;5031173;28;20017;-74
2022/08/18 07:27:01;;;;;;;21.83;16.02;;;;;;;24.75;66.92;98145.00;5030916;28;20763;-76
2022/08/18 07:29:27;;;;;;;;;;;;;;;24.86;66.82;98152.63;5028955;28;20030;-74
2022/08/18 07:31:54;;;;;;;18.65;15.88;;;;;;;24.92;66.54;98143.41;5024809;28;19971;-74
2022/08/18 07:34:26;;;;;;;20.00;16.00;;;;;;;25.00;66.73;98140.59;5028137;28;20037;-73
2022/08/18 07:36:58;;;;;;;19.35;16.60;;;;;;;25.07;66.44;98143.38;5027821;28;20028;-75
2022/08/18 07:39:30;;;;;;;19.52;16.52;;;;;;;25.17;66.57;98142.56;5028064;28;20556;-74
2022/08/18 07:42:07;;;;;;;20.88;16.35;;;;;;;25.26;66.03;98140.16;5031699;28;20159;-74
2022/08/18 07:44:56;;;;;;;21.23;16.92;;;;;;;25.34;65.96;98137.34;5027384;28;20057;-75
2022/08/18 07:47:30;;;;;;;21.33;15.70;;;;;;;25.42;65.58;98139.72;5028119;28;20045;-77
2022/08/18 07:49:57;;;;;;;18.80;15.27;;;;;;;25.50;65.22;98134.13;5030966;28;20036;-78
2022/08/18 07:52:48;;;;;;;17.63;15.23;;;;;;;25.56;65.48;98138.91;5030253;28;20029;-77
2022/08/18 07:55:15;;;;;;;17.05;13.90;;;;;;;25.65;65.12;98132.06;5028754;28;20018;-74
2022/08/18 07:57:51;;;;;;;16.50;14.18;;;;;;;25.73;64.88;98133.66;5029047;28;20032;-74
2022/08/18 08:00:38;;;;;;;18.25;14.27;;;;;;;25.81;64.65;98138.03;5029587;28;20037;-76
2022/08/18 08:03:22;;;;;;;18.45;14.20;;;;;;;25.91;64.47;98144.81;5030806;28;20135;-77
2022/08/18 08:05:58;;;;;;;17.60;13.70;;;;;;;25.99;64.20;98154.81;5028124;28;20203;-78
2022/08/18 08:08:48;;;;;;;16.55;13.05;;;;;;;26.07;63.91;98155.59;5031363;28;20032;-75
2022/08/18 08:11:33;;;;;;;15.05;13.38;;;;;;;26.16;63.40;98152.34;5026900;28;20042;-77
2022/08/18 08:14:29;;;;;;;19.00;13.20;;;;;;;26.22;63.00;98156.34;5027861;28;20025;-75
2022/08/18 08:17:09;;;;;;;21.83;15.23;;;;;;;26.26;62.76;98159.16;5032147;28;20025;-74
2022/08/18 08:19:41;;;;;;;22.05;16.65;;;;;;;26.32;62.64;98156.69;5026165;28;20056;-78
2022/08/18 08:22:21;;;;;;;16.63;14.45;;;;;;;26.37;62.46;98159.09;5027850;28;20036;-76
2022/08/18 08:24:53;;;;;;;17.63;13.45;;;;;;;26.42;61.99;98153.03;5024933;28;20052;-75
2022/08/18 08:27:41;;;;;;;16.45;12.30;;;;;;;26.46;61.81;98145.38;5033628;28;20434;-74
2022/08/18 08:30:18;;;;;;;15.43;11.43;;;;;;;26.52;61.25;98148.53;5029897;28;20026;-76
2022/08/18 08:32:49;;;;;;;15.02;12.35;;;;;;;26.57;60.99;98162.16;5028353;28;20430;-77
2022/08/18 08:35:40;;;;;;;18.70;12.43;;;;;;;26.62;60.57;98158.94;5029967;28;20040;-76
2022/08/18 08:38:14;;;;;;;13.85;11.30;;;;;;;26.67;60.16;98160.50;5029609;28;20034;-76
2022/08/18 08:40:46;;;;;;;13.30;11.55;;;;;;;26.71;59.99;98170.50;5027843;28;20128;-72
2022/08/18 08:43:18;;;;;;;13.52;11.85;;;;;;;26.75;59.79;98167.66;5024068;28;20100;-75
2022/08/18 08:46:02;;;;;;;16.20;11.85;;;;;;;26.81;59.61;98173.66;5026893;28;20068;-76
2022/08/18 08:48:33;;;;;;;14.43;12.93;;;;;;;26.89;59.77;98183.66;5027822;28;20434;-76
2022/08/18 08:51:10;;;;;;;15.25;12.88;;;;;;;26.95;59.80;98175.56;5031820;28;20132;-74
2022/08/18 08:53:44;;;;;;;13.88;11.52;;;;;;;27.02;59.78;98186.78;5028809;28;20536;-74
2022/08/18 08:56:13;;;;;;;12.98;11.60;;;;;;;27.10;59.52;98184.72;5028468;28;20033;-74
2022/08/18 08:58:52;;;;;;;13.23;11.82;;;;;;;27.13;59.31;98186.69;5031460;28;20032;-74
2022/08/18 09:01:41;;;;;;;15.85;11.70;;;;;;;27.18;58.99;98192.69;5031658;28;20120;-76
2022/08/18 09:04:06;;;;;;;;;;;;;;;27.27;58.94;98185.78;5027782;28;20021;-73
2022/08/18 09:06:46;;;;;;;13.20;10.68;;;;;;;27.31;58.60;98192.16;5024334;28;20373;-76
2022/08/18 09:09:27;;;;;;;12.07;10.57;;;;;;;27.33;58.34;98187.72;5041344;28;20049;-75
2022/08/18 09:12:08;;;;;;;13.05;10.20;;;;;;;27.39;57.96;98188.06;5029112;28;20484;-76
2022/08/18 09:14:46;;;;;;;15.10;11.57;;;;;;;27.44;57.82;98181.97;5030435;28;20037;-76
2022/08/18 09:17:42;;;;;;;12.60;9.93;;;;;;;27.51;57.62;98178.31;5031624;28;20025;-75
2022/08/18 09:20:08;;;;;;;13.30;10.95;;;;;;;27.55;57.06;98175.47;5028633;28;20180;-75
2022/08/18 09:22:58;;;;;;;12.63;9.82;;;;;;;27.60;56.92;98173.00;5028844;28;20033;-75
2022/08/18 09:25:29;;;;;;;13.30;10.25;;;;;;;27.68;56.84;98179.38;5029871;28;20030;-76
2022/08/18 09:28:10;;;;;;;12.18;9.75;;;;;;;27.77;56.87;98176.81;5029809;28;20480;-75
2022/08/18 09:31:00;;;;;;;12.90;9.80;;;;;;;27.83;56.64;98177.19;5029975;28;20075;-77
2022/08/18 09:33:44;;;;;;;10.38;8.25;;;;;;;27.87;55.73;98169.50;5030271;28;20048;-75
2022/08/18 09:36:55;;;;;;;11.35;8.63;;;;;;;27.90;55.08;98163.00;5028899;28;20040;-77
2022/08/18 09:42:26;;;;;;;11.45;9.45;;;;;;;27.98;55.04;98174.16;5020426;28;20045;-75
2022/08/18 09:44:51;;;;;;;11.75;8.70;;;;;;;28.03;54.78;98168.88;5019746;28;20459;-73
2022/08/18 09:47:20;;;;;;;12.18;8.95;;;;;;;28.10;54.56;98167.22;5026393;28;20063;-76
2022/08/18 09:50:17;;;;;;;12.05;9.95;;;;;;;28.19;54.66;98162.66;5024206;28;20029;-77
2022/08/18 09:52:42;;;;;;;14.10;9.25;;;;;;;28.28;54.29;98162.13;5023117;28;20030;-76
2022/08/18 09:55:17;;;;;;;12.63;9.25;;;;;;;28.35;54.43;98153.59;5028338;28;20040;-76
2022/08/18 09:57:45;;;;;;;13.65;9.52;;;;;;;28.44;54.23;98149.44;5032207;28;20439;-76
2022/08/18 10:00:14;;;;;;;13.27;9.30;;;;;;;28.53;53.80;98144.06;5025971;28;20039;-73
2022/08/18 10:02:40;;;;;;;11.30;8.70;;;;;;;28.59;53.48;98141.56;5027599;28;20291;-80
2022/08/18 10:05:18;;;;;;;9.13;8.15;;;;;;;28.65;53.54;98139.88;5022771;28;20021;-78
2022/08/18 10:08:15;;;;;;;11.13;9.50;;;;;;;28.68;52.43;98134.16;5018752;28;20680;-81
2022/08/18 10:10:57;;;;;;;11.40;8.82;;;;;;;28.73;52.51;98132.88;5024851;28;20033;-79
2022/08/18 10:13:29;;;;;;;10.82;9.40;;;;;;;28.82;52.33;98133.16;5022126;28;20034;-77
2022/08/18 10:16:04;;;;;;;12.43;9.35;;;;;;;28.90;52.22;98125.38;5023996;28;20079;-79
2022/08/18 10:18:41;;;;;;;14.00;9.57;;;;;;;28.95;51.40;98127.69;5033127;28;20488;-73
2022/08/18 10:21:07;;;;;;;15.30;9.15;;;;;;;28.97;51.65;98119.59;5016246;28;20022;-74
2022/08/18 10:23:54;;;;;;;10.73;9.02;;;;;;;29.04;51.90;98118.69;5029426;28;20025;-73
2022/08/18 10:26:29;;;;;;;12.23;10.38;;;;;;;29.07;51.40;98112.19;5033310;28;20052;-74
2022/08/18 10:29:07;;;;;;;11.88;9.35;;;;;;;29.13;51.23;98100.41;5032618;28;20128;-73
2022/08/18 10:31:54;;;;;;;12.57;9.07;;;;;;;29.19;51.21;98098.66;5013039;28;20029;-74
2022/08/18 10:34:39;;;;;;;13.55;9.38;;;;;;;29.26;50.80;98092.88;5013761;28;20040;-74
2022/08/18 10:37:21;;;;;;;10.90;9.02;;;;;;;29.34;50.88;98093.56;5014250;28;20045;-75
2022/08/18 10:40:05;;;;;;;14.88;9.65;;;;;;;29.45;50.31;98090.53;5014531;28;20392;-74
2022/08/18 10:42:37;;;;;;;10.48;9.50;;;;;;;29.53;50.51;98083.53;5014927;28;20034;-74
2022/08/18 10:45:24;;;;;;;12.27;9.50;;;;;;;29.60;50.07;98080.53;5014442;28;20046;-74
2022/08/18 10:48:08;;;;;;;10.68;9.30;;;;;;;29.66;49.65;98080.84;5014652;28;20030;-73
2022/08/18 10:50:40;;;;;;;11.07;9.20;;;;;;;29.74;49.48;98081.47;5014559;28;20076;-74
2022/08/18 10:53:18;;;;;;;12.25;9.25;;;;;;;29.79;49.52;98078.94;5028719;28;20036;-74
2022/08/18 10:55:49;;;;;;;16.23;10.20;;;;;;;29.84;48.41;98078.41;5033919;28;20026;-74
2022/08/18 10:58:34;;;;;;;12.68;10.13;;;;;;;29.88;49.13;98075.53;5034091;28;20021;-74
2022/08/18 11:01:08;;;;;;;13.70;9.35;;;;;;;29.94;48.53;98073.78;5034352;28;20033;-75
2022/08/18 11:03:53;;;;;;;11.25;9.27;;;;;;;30.04;48.80;98080.47;5033820;28;20356;-71
2022/08/18 11:06:23;;;;;;;11.23;8.93;;;;;;;30.09;48.31;98067.81;5039213;28;20041;-74
2022/08/18 11:08:52;;;;;;;11.15;9.90;;;;;;;30.12;48.24;98072.59;5033712;28;20023;-74
2022/08/18 11:11:22;;;;;;;;;;;;;;;30.18;48.73;98072.88;5033314;28;20402;-75
2022/08/18 11:13:47;;;;;;;10.48;9.45;;;;;;;30.22;48.03;98065.09;5033051;28;20402;-74
2022/08/18 11:16:43;;;;;;;11.68;10.27;;;;;;;30.26;48.14;98066.63;5033410;28;20084;-73
2022/08/18 11:19:12;;;;;;;11.68;9.80;;;;;;;30.33;47.38;98053.56;5022813;28;20037;-74
2022/08/18 11:21:40;;;;;;;11.63;9.38;;;;;;;30.37;47.33;98049.41;5033024;28;20026;-73
2022/08/18 11:24:10;;;;;;;10.45;9.05;;;;;;;30.43;47.20;98055.31;5023766;28;20025;-73
2022/08/18 11:26:48;;;;;;;13.70;9.27;;;;;;;30.50;47.82;98051.53;5013771;28;20468;-73
2022/08/18 11:29:17;;;;;;;11.18;9.40;;;;;;;30.58;47.16;98041.63;5017659;28;20483;-72
2022/08/18 11:31:43;;;;;;;10.00;8.98;;;;;;;30.66;46.43;98034.56;5034895;28;20037;-73
2022/08/18 11:34:27;;;;;;;10.70;8.95;;;;;;;30.72;46.71;98029.19;5032953;28;20029;-73
2022/08/18 11:36:58;;;;;;;11.98;8.80;;;;;;;30.79;46.03;98040.28;5033281;28;20029;-72
2022/08/18 11:39:24;;;;;;;14.00;9.68;;;;;;;30.84;46.19;98036.94;5033017;28;20422;-72
2022/08/18 11:41:50;;;;;;;13.25;8.98;;;;;;;30.87;45.53;98038.09;5034612;28;20542;-73
2022/08/18 11:44:20;;;;;;;8.85;7.95;;;;;;;30.88;44.75;98040.47;5032899;28;20128;-71
2022/08/18 11:46:46;;;;;;;11.95;8.73;;;;;;;30.89;43.95;98044.88;5032957;28;20024;-72
2022/08/18 11:49:18;;;;;;;12.60;9.48;;;;;;;30.91;44.13;98035.16;5032824;28;20018;-73
2022/08/18 11:51:59;;;;;;;14.43;12.27;;;;;;;31.00;44.00;98024.78;5035684;28;20506;-73
2022/08/18 11:54:41;;;;;;;10.23;8.80;;;;;;;31.12;44.23;98030.94;5037617;28;20036;-72
2022/08/18 11:57:40;;;;;;;9.60;8.68;;;;;;;31.22;44.33;98034.75;5034355;28;20655;-71
2022/08/18 12:00:35;;;;;;;8.65;7.72;;;;;;;31.30;44.11;98027.63;5032647;28;20026;-72